AirNav   Everest Fuels
 
 374 users online  

CYQG Windsor Airport
Windsor, Ontario, Canada

GOING TO WINDSOR?


FAA INFORMATION EFFECTIVE 26 MARCH 2020

The information below comes from the U.S. Federal Aviation Administration (FAA). The FAA is not the official source of data for facilities located outside the United States, and THESE RECORDS ARE LIKELY NOT COMPLETE OR CORRECT.

Location

FAA Identifier: CYQG
Lat/Long: 42-16-33.1111N 082-57-27.5347W
42-16.551852N 082-57.458912W
42.2758642,-82.9576485
(estimated)
Elevation: 622 ft. / 190 m (estimated)
Variation: 07W ()
Time zone: UTC -4 (UTC -5 during Standard Time)
Zip code: 48243

Airport Operations

Airport use: Open to the public
Activation date: 03/2005
Control tower: no
ARTCC: CLEVELAND CENTER
FSS: LONDON FIC FLIGHT SERVICE STATION
Attendance: 
Segmented circle: no

Airport Communications

WX ASOS at DET (8 nm N): PHONE 313-371-9696
WX AWOS-3 at ONZ (14 nm SW): 119.675 (734-692-9686)
WX ASOS at DTW (18 nm W): 133.675 (734-955-5015)
WX AWOS-3 at VLL (19 nm NW): 119.475 (248-288-4649)

Nearby radio navigation aids

VOR radial/distance  VOR name  Freq  Var
YQGr291/5.9WINDSOR VOR/DME113.8006W
DXOr084/18.6DETROIT VOR/DME113.4006W
CRLr061/26.1CARLETON VOR/DME115.7003W
SVMr109/29.3SALEM VORTAC114.3003W

 
NDB name  Hdg/Dist  Freq  Var  ID
GROSSE ILE047/13.641907WRYS .-. -.-- ...

Airport Services

Runway Information

Runway 7/25

Dimensions: 9000 x 200 ft. / 2743 x 61 m
Surface: asphalt
RUNWAY 7  RUNWAY 25
Latitude: 42-16.404018N42-17.086803N
Longitude: 082-58.209487W082-56.438652W
Elevation: 622.0 ft.608.0 ft.
Traffic pattern: leftleft
Runway heading: 070 magnetic, 063 true250 magnetic, 243 true
Displaced threshold: 901 ft.1143 ft.
Touchdown point: yes, no lightsyes, no lights

Runway 12/30

Dimensions: 5150 x 150 ft. / 1570 x 46 m
Surface: asphalt
RUNWAY 12  RUNWAY 30
Latitude: 42-16.396830N42-16.030400N
Longitude: 082-58.209295W082-57.179820W
Elevation: 622.0 ft.619.0 ft.
Traffic pattern: leftleft
Runway heading: 123 magnetic, 116 true303 magnetic, 296 true
Displaced threshold: 570 ft.321 ft.
Touchdown point: yes, no lightsyes, no lights

Airport Ownership and Management from official FAA records

Ownership: Publicly-owned

Additional Remarks

FOR CD CTC DETROIT APCH AT 800-499-8181.

Instrument Procedures

There are no published instrument procedures at CYQG.

Some nearby airports with instrument procedures:

KDET - Coleman A Young Municipal Airport (8 nm N)
KONZ - Grosse Ile Municipal Airport (14 nm SW)
KDTW - Detroit Metropolitan Wayne County Airport (18 nm W)
KVLL - Oakland/Troy Airport (19 nm NW)
KMTC - Selfridge Air National Guard Base (21 nm N)
 
Loc | Ops | Rwys | IFR | FBO | Links
Com | Nav | Svcs | Stats | Notes
Aerial photo
No photo
 
Airport distance calculator
Flying to Windsor Airport? Find the distance to fly.

From to CYQG

Sunrise and sunset
Times for 07-Apr-2020
 Local
(UTC-4)
 Zulu
(UTC)
Morning civil twilight06:3510:35
Sunrise07:0411:04
Sunset20:0400:04
Evening civil twilight20:3300:33

Current date and time
Zulu (UTC)  07-Apr-2020 10:32:27
Local (UTC-4)  07-Apr-2020 06:32:27
 
METAR
CYQG 071001Z AUTO 14003KT 060V150 9SM OVC035 07/02 A2991 RMK SLP132
KDET 
8nm N 
070953Z 15005KT 10SM OVC036 08/02 A2990 RMK AO2 PRESFR SLP127 T00830017
KONZ 
14nm SW 
071016Z AUTO 00000KT 10SM -RA BKN080 OVC100 07/05 A2991 RMK AO2 P0001 T00650047
CXHA 
15nm S 
071000Z AUTO 36002KT 07/02 RMK AO1 1PAST HR 6016 SLP134 P0000 T00720023 50001
KDTW 
17nm W 
070953Z 00000KT 8SM -RA BKN032 BKN045 OVC070 08/01 A2991 RMK AO2 SLP131 P0000 T00780006
KVLL 
19nm NW 
071016Z AUTO 00000KT 10SM OVC036 09/M03 A2992 RMK AO2 T00851034
TAF
CYQG 070544Z 0706/0806 VRB03KT P6SM OVC070 FM071200 16005KT P6SM OVC040 FM071400 12008KT 3SM -SHRA BR OVC005 BECMG 0720/0722 19010KT FM080100 20010KT 1SM -RA BR OVC003 FM080200 25009KT 2SM RA BR OVC003 PROB30 0802/0805 2SM +TSRA BR OVC050CB FM080500 27012KT P6SM OVC010 RMK FCST BASED ON AUTO OBS. NXT FCST BY 071200Z
KDET 
8nm N 
070520Z 0706/0806 14005KT P6SM OVC045 FM070800 12005KT 4SM -SHRA BR OVC025 FM071100 12005KT 2SM -SHRA BR OVC007 FM071500 12005KT 6SM BR OVC007 FM072000 16007KT 6SM BR OVC015
KDTW 
17nm W 
070909Z 0709/0812 12005KT 6SM -SHRA BR OVC030 FM071000 12005KT 6SM -SHRA BR OVC025 FM071400 12005KT 6SM BR OVC007 FM072000 16007KT 6SM BR OVC015
NOTAMs
Click for the latest NOTAMs
NOTAMs are issued by the DoD/FAA and will open in a separate window not controlled by AirNav.

 

 
 

Would you like to see your business listed on this page?

 If your business provides an interesting product or service to pilots, flight crews, aircraft, or users of the Windsor Airport, you should consider listing it here.  To start the listing process, click on the button below
 
Add a business
 

Other Pages about Windsor Airport

Update a link
 
Copyright © AirNav, LLC. All rights reserved. Privacy Policy  Contact